Time;durP1;ratioP1;P1;durP2;ratioP2;P2;SDS_P1;SDS_P2;PMS_P1;PMS_P2;Temp;Humidity;BMP_temperature;BMP_pressure;BME280_temperature;BME280_humidity;BME280_pressure;Samples;Min_cycle;Max_cycle;Signal;HPM_P1;HPM_P2
2021/04/26 00:00:56;;;;;;;6.43;3.85;;;8.20;65.10;;;;;;5113559;28;20306;-38
2021/04/26 00:03:23;;;;;;;4.80;4.30;;;8.10;65.50;;;;;;5113829;28;20267;-44
2021/04/26 00:05:50;;;;;;;5.18;4.00;;;8.10;66.10;;;;;;5113526;28;20273;-40
2021/04/26 00:08:17;;;;;;;7.55;4.40;;;8.00;66.30;;;;;;5113603;28;20214;-38
2021/04/26 00:10:44;;;;;;;6.93;5.25;;;8.00;66.60;;;;;;5113353;28;20206;-38
2021/04/26 00:13:11;;;;;;;7.15;4.78;;;7.90;67.00;;;;;;5113442;28;20607;-38
2021/04/26 00:15:43;;;;;;;5.15;4.70;;;7.90;67.60;;;;;;5113474;28;20224;-38
2021/04/26 00:18:11;;;;;;;6.28;5.22;;;7.90;68.00;;;;;;5113380;28;20212;-39
2021/04/26 00:20:39;;;;;;;6.88;5.22;;;7.80;67.80;;;;;;5113294;28;20255;-39
2021/04/26 00:23:07;;;;;;;7.40;4.80;;;7.80;68.20;;;;;;5112984;28;20549;-38
2021/04/26 00:25:34;;;;;;;6.82;4.18;;;7.80;68.30;;;;;;5113236;28;20663;-37
2021/04/26 00:28:02;;;;;;;7.88;4.80;;;7.70;68.60;;;;;;5113113;28;20668;-40
2021/04/26 00:30:29;;;;;;;5.80;4.15;;;7.60;69.30;;;;;;5113229;28;20317;-38
2021/04/26 00:32:57;;;;;;;8.55;4.88;;;7.60;69.50;;;;;;5113142;28;20252;-39
2021/04/26 00:35:25;;;;;;;6.32;4.97;;;7.50;70.00;;;;;;5112944;28;20202;-39
2021/04/26 00:37:53;;;;;;;5.60;4.72;;;7.50;70.40;;;;;;5112875;28;20287;-39
2021/04/26 00:40:21;;;;;;;5.07;4.60;;;7.50;70.80;;;;;;5113023;28;20443;-39
2021/04/26 00:42:49;;;;;;;7.93;5.30;;;7.40;70.80;;;;;;5112791;28;20208;-38
2021/04/26 00:45:20;;;;;;;8.07;5.35;;;7.40;71.20;;;;;;5111866;28;20257;-38
2021/04/26 00:47:48;;;;;;;4.82;3.97;;;7.40;71.30;;;;;;5112908;28;20255;-38
2021/04/26 00:50:17;;;;;;;8.98;5.38;;;7.30;71.70;;;;;;5112604;28;20209;-38
2021/04/26 00:52:46;;;;;;;6.03;4.63;;;7.20;72.30;;;;;;5112985;28;20210;-38
2021/04/26 00:55:14;;;;;;;6.85;5.57;;;7.20;72.60;;;;;;5112603;28;20704;-38
2021/04/26 00:57:42;;;;;;;6.20;4.90;;;7.10;72.90;;;;;;5112647;28;20252;-38
2021/04/26 01:00:10;;;;;;;6.75;5.45;;;7.10;73.50;;;;;;5112736;28;20458;-38
2021/04/26 01:02:38;;;;;;;6.20;5.47;;;7.10;73.70;;;;;;5112598;28;20364;-38
2021/04/26 01:05:07;;;;;;;7.90;5.10;;;7.00;73.90;;;;;;5112283;28;20700;-38
2021/04/26 01:07:35;;;;;;;8.38;5.32;;;7.00;74.00;;;;;;5112828;28;20205;-38
2021/04/26 01:10:03;;;;;;;6.80;5.88;;;7.00;74.30;;;;;;5112720;28;20206;-38
2021/04/26 01:12:42;;;;;;;7.90;5.45;;;6.90;74.50;;;;;;5112724;28;20242;-38
2021/04/26 01:15:17;;;;;;;8.13;5.47;;;6.90;75.10;;;;;;5112425;28;20198;-38
2021/04/26 01:17:48;;;;;;;7.85;5.25;;;6.80;75.20;;;;;;5112547;28;20293;-38
2021/04/26 01:20:55;;;;;;;5.95;5.35;;;6.70;75.30;;;;;;5112446;28;20279;-38
2021/04/26 01:23:58;;;;;;;10.55;6.10;;;6.70;75.80;;;;;;5112334;28;20206;-38
2021/04/26 01:26:35;;;;;;;8.75;6.03;;;6.60;76.20;;;;;;5112178;28;20320;-38
2021/04/26 01:29:17;;;;;;;7.15;5.75;;;6.60;76.20;;;;;;5112416;28;20234;-38
2021/04/26 01:32:02;;;;;;;6.68;5.90;;;6.50;76.60;;;;;;5112284;28;20243;-38
2021/04/26 01:34:30;;;;;;;7.43;5.35;;;6.60;81.10;;;;;;5112283;28;20197;-38
2021/04/26 01:36:58;;;;;;;6.55;5.18;;;6.60;83.40;;;;;;5112426;28;20297;-38
2021/04/26 01:39:26;;;;;;;9.50;5.93;;;6.40;77.40;;;;;;5112154;28;20296;-38
2021/04/26 01:41:54;;;;;;;9.65;6.28;;;6.50;77.30;;;;;;5112231;28;20201;-38
2021/04/26 01:44:21;;;;;;;8.35;5.97;;;6.40;77.20;;;;;;5112023;28;20289;-38
2021/04/26 01:46:51;;;;;;;6.57;5.53;;;6.50;77.60;;;;;;5112210;28;20230;-38
2021/04/26 01:49:19;;;;;;;6.63;5.95;;;6.50;77.70;;;;;;5112315;28;20206;-38
2021/04/26 01:51:48;;;;;;;10.32;6.13;;;6.50;77.60;;;;;;5112144;28;20748;-38
2021/04/26 01:54:16;;;;;;;9.10;6.32;;;6.40;77.60;;;;;;5112169;28;20676;-38
2021/04/26 01:56:43;;;;;;;8.95;5.47;;;6.40;77.80;;;;;;5114866;28;20237;-39
2021/04/26 01:59:11;;;;;;;10.07;6.05;;;6.40;78.60;;;;;;5116197;27;20293;-38
2021/04/26 02:01:39;;;;;;;7.88;5.90;;;6.30;78.20;;;;;;5116175;28;20304;-39
2021/04/26 02:04:07;;;;;;;6.85;5.68;;;6.30;78.40;;;;;;5116274;28;20297;-39
2021/04/26 02:06:36;;;;;;;5.95;5.20;;;6.30;78.50;;;;;;5116119;28;20769;-38
2021/04/26 02:09:05;;;;;;;8.32;6.22;;;6.30;78.40;;;;;;5115759;28;20292;-38
2021/04/26 02:11:32;;;;;;;7.60;5.65;;;6.30;78.50;;;;;;5115948;28;20691;-38
2021/04/26 02:14:00;;;;;;;7.72;5.53;;;6.30;78.60;;;;;;5116115;28;20301;-39
2021/04/26 02:16:27;;;;;;;10.63;5.88;;;6.30;78.70;;;;;;5116116;28;20289;-38
2021/04/26 02:18:54;;;;;;;9.77;6.38;;;6.30;78.80;;;;;;5115976;28;20300;-38
2021/04/26 02:21:21;;;;;;;5.72;5.10;;;6.30;78.90;;;;;;5115909;28;20239;-37
2021/04/26 02:23:49;;;;;;;12.30;6.00;;;6.20;78.90;;;;;;5115545;28;20237;-38
2021/04/26 02:26:17;;;;;;;7.20;6.15;;;6.30;79.10;;;;;;5115899;28;20230;-38
2021/04/26 02:28:44;;;;;;;7.82;5.68;;;6.20;79.20;;;;;;5115628;28;20242;-39
2021/04/26 02:31:16;;;;;;;8.23;5.38;;;6.20;79.20;;;;;;5115769;28;20245;-38
2021/04/26 02:33:50;;;;;;;6.43;5.57;;;6.20;79.50;;;;;;5115584;28;20703;-38
2021/04/26 02:36:23;;;;;;;8.30;5.68;;;6.20;79.70;;;;;;5115569;28;20215;-38
2021/04/26 02:38:53;;;;;;;10.30;6.15;;;6.20;79.50;;;;;;5115479;28;20237;-38
2021/04/26 02:41:24;;;;;;;6.57;5.97;;;6.10;79.50;;;;;;5115578;28;20216;-38
2021/04/26 02:43:56;;;;;;;7.50;6.07;;;6.10;80.50;;;;;;5115541;28;20230;-38
2021/04/26 02:46:25;;;;;;;6.35;5.05;;;6.00;80.20;;;;;;5115364;28;20318;-42
2021/04/26 02:48:52;;;;;;;6.60;5.95;;;6.00;80.60;;;;;;5115521;27;20240;-39
2021/04/26 02:51:21;;;;;;;6.82;5.97;;;6.00;80.70;;;;;;5115506;28;20229;-39
2021/04/26 02:53:52;;;;;;;10.00;5.47;;;6.00;80.40;;;;;;5115361;28;20634;-39
2021/04/26 02:56:20;;;;;;;7.05;5.82;;;6.10;80.20;;;;;;5115197;28;20630;-39
2021/04/26 02:58:51;;;;;;;6.30;5.70;;;6.20;80.30;;;;;;5115118;28;20256;-39
2021/04/26 03:01:19;;;;;;;7.85;5.63;;;6.20;80.40;;;;;;5115035;28;20249;-39
2021/04/26 03:03:47;;;;;;;8.63;5.35;;;6.20;80.20;;;;;;5115109;28;20214;-39
2021/04/26 03:06:16;;;;;;;7.95;6.03;;;6.20;80.30;;;;;;5114809;28;20241;-38
2021/04/26 03:08:43;;;;;;;9.75;5.55;;;6.20;80.20;;;;;;5114009;28;20305;-38
2021/04/26 03:11:15;;;;;;;6.28;5.68;;;6.20;80.30;;;;;;5114940;28;20230;-38
2021/04/26 03:13:43;;;;;;;8.68;6.00;;;6.10;80.30;;;;;;5114935;28;20293;-38
2021/04/26 03:16:11;;;;;;;9.23;5.55;;;6.10;80.50;;;;;;5114786;28;20296;-38
2021/04/26 03:18:40;;;;;;;6.82;5.53;;;6.10;80.60;;;;;;5114763;28;20772;-38
2021/04/26 03:21:09;;;;;;;8.60;5.63;;;6.10;80.70;;;;;;5114646;28;20206;-39
2021/04/26 03:23:37;;;;;;;6.80;6.05;;;6.10;80.80;;;;;;5114751;28;20646;-39
2021/04/26 03:26:06;;;;;;;9.60;6.18;;;6.10;81.00;;;;;;5114540;28;20222;-41
2021/04/26 03:28:38;;;;;;;6.15;5.03;;;6.10;81.20;;;;;;5114533;28;20238;-39
2021/04/26 03:31:06;;;;;;;6.45;5.72;;;6.00;81.20;;;;;;5114523;28;20237;-39
2021/04/26 03:33:34;;;;;;;11.65;5.68;;;6.00;81.40;;;;;;5114625;28;20249;-40
2021/04/26 03:36:02;;;;;;;8.07;5.22;;;6.00;81.50;;;;;;5114550;28;20236;-39
2021/04/26 03:38:30;;;;;;;8.82;6.18;;;6.00;81.50;;;;;;5114478;28;20242;-40
2021/04/26 03:40:58;;;;;;;7.40;6.20;;;6.00;81.30;;;;;;5114238;27;20288;-41
2021/04/26 03:43:25;;;;;;;13.55;6.78;;;6.00;81.40;;;;;;5114805;28;20206;-40
2021/04/26 03:45:56;;;;;;;9.60;6.15;;;5.90;81.50;;;;;;5114295;28;20258;-40
2021/04/26 03:48:24;;;;;;;10.32;6.40;;;5.90;81.70;;;;;;5114127;28;20209;-40
2021/04/26 03:50:51;;;;;;;10.55;6.78;;;5.90;81.90;;;;;;5113989;28;20292;-39
2021/04/26 03:53:18;;;;;;;9.02;6.75;;;5.90;81.80;;;;;;5113958;28;20301;-39
2021/04/26 03:55:45;;;;;;;11.35;6.30;;;5.90;82.40;;;;;;5113674;28;20252;-39
2021/04/26 03:58:12;;;;;;;9.45;7.00;;;5.90;81.80;;;;;;5113914;28;20758;-39
2021/04/26 04:00:39;;;;;;;8.57;7.00;;;5.90;82.00;;;;;;5113865;28;20313;-39
2021/04/26 04:03:07;;;;;;;10.50;6.03;;;5.90;82.00;;;;;;5113595;28;20238;-40
2021/04/26 04:05:37;;;;;;;6.70;6.00;;;5.90;82.00;;;;;;5113329;28;20266;-40
2021/04/26 04:08:04;;;;;;;12.15;6.85;;;5.80;81.90;;;;;;5113336;28;20242;-40
2021/04/26 04:10:32;;;;;;;7.88;6.30;;;5.90;82.00;;;;;;5113529;28;20262;-40
2021/04/26 04:12:59;;;;;;;8.32;5.97;;;5.90;81.90;;;;;;5113624;28;20245;-40
2021/04/26 04:15:26;;;;;;;9.63;6.15;;;6.00;82.00;;;;;;5113372;28;20695;-40
2021/04/26 04:17:53;;;;;;;11.45;7.55;;;5.90;81.90;;;;;;5113104;28;20305;-40
2021/04/26 04:20:20;;;;;;;8.55;6.65;;;5.90;81.90;;;;;;5113110;28;20683;-40
2021/04/26 04:22:47;;;;;;;9.63;6.57;;;6.00;82.00;;;;;;5112957;28;20210;-39
2021/04/26 04:25:15;;;;;;;7.35;6.60;;;6.00;82.00;;;;;;5113168;28;20310;-40
2021/04/26 04:27:42;;;;;;;8.07;6.53;;;6.00;81.80;;;;;;5113017;28;20253;-39
2021/04/26 04:30:11;;;;;;;11.68;7.25;;;6.10;81.70;;;;;;5113175;28;20585;-39
2021/04/26 04:32:39;;;;;;;8.85;7.65;;;6.10;81.50;;;;;;5113271;28;20296;-39
2021/04/26 04:35:07;;;;;;;8.63;6.90;;;6.10;81.40;;;;;;5113199;28;20676;-39
2021/04/26 04:37:35;;;;;;;14.75;7.32;;;6.20;81.40;;;;;;5112989;28;20313;-39
2021/04/26 04:40:03;;;;;;;11.82;7.10;;;6.10;81.40;;;;;;5113274;28;20239;-40
2021/04/26 04:42:30;;;;;;;9.75;6.68;;;6.20;81.50;;;;;;5113278;28;20242;-39
2021/04/26 04:44:57;;;;;;;9.95;6.45;;;6.20;81.30;;;;;;5113158;28;20317;-39
2021/04/26 04:47:24;;;;;;;8.07;6.35;;;6.30;81.00;;;;;;5113083;28;20333;-39
2021/04/26 04:49:51;;;;;;;9.90;6.50;;;6.40;80.80;;;;;;5113070;28;20533;-39
2021/04/26 04:52:18;;;;;;;10.82;7.05;;;6.50;80.60;;;;;;5113154;28;20210;-38
2021/04/26 04:54:46;;;;;;;9.65;6.95;;;6.50;80.40;;;;;;5112868;28;20702;-39
2021/04/26 04:57:13;;;;;;;8.40;6.75;;;6.50;80.40;;;;;;5112874;28;20297;-39
2021/04/26 04:59:40;;;;;;;8.88;7.40;;;6.60;80.60;;;;;;5112962;28;20279;-39
2021/04/26 05:02:07;;;;;;;13.98;7.32;;;6.70;80.40;;;;;;5112824;28;20246;-39
2021/04/26 05:04:34;;;;;;;7.20;6.47;;;6.70;80.00;;;;;;5112958;28;20256;-41
2021/04/26 05:07:01;;;;;;;8.75;6.65;;;6.80;79.80;;;;;;5112815;28;20229;-39
2021/04/26 05:09:28;;;;;;;9.45;7.20;;;6.90;79.60;;;;;;5112534;28;20627;-39
2021/04/26 05:11:55;;;;;;;7.88;6.53;;;6.90;79.50;;;;;;5112609;28;20211;-39
2021/04/26 05:14:25;;;;;;;19.30;7.88;;;7.00;79.30;;;;;;5112704;28;20300;-39
2021/04/26 05:16:52;;;;;;;9.13;7.10;;;7.10;79.00;;;;;;5112513;28;20223;-39
2021/04/26 05:19:19;;;;;;;9.40;6.85;;;7.20;78.70;;;;;;5112763;28;20216;-39
2021/04/26 05:21:46;;;;;;;9.88;7.00;;;7.30;78.70;;;;;;5112811;28;20233;-39
2021/04/26 05:24:13;;;;;;;12.63;7.60;;;7.30;78.40;;;;;;5112375;28;20293;-39
2021/04/26 05:26:40;;;;;;;11.82;7.05;;;7.40;78.40;;;;;;5112306;28;20240;-39
2021/04/26 05:29:08;;;;;;;11.57;7.55;;;7.40;78.20;;;;;;5112458;28;20237;-39
2021/04/26 05:31:34;;;;;;;11.18;7.13;;;7.40;78.90;;;;;;5111773;28;20267;-39
2021/04/26 05:34:01;;;;;;;8.35;7.38;;;7.50;78.20;;;;;;5112493;28;20329;-40
2021/04/26 05:36:28;;;;;;;8.30;7.10;;;7.60;77.90;;;;;;5112541;28;20297;-39
2021/04/26 05:38:56;;;;;;;9.25;7.93;;;7.70;77.60;;;;;;5112274;28;20239;-38
2021/04/26 05:41:24;;;;;;;10.82;7.50;;;7.70;77.50;;;;;;5112274;28;20648;-39
2021/04/26 05:43:50;;;;;;;7.88;7.03;;;7.70;77.30;;;;;;5112226;28;20205;-39
2021/04/26 05:46:19;;;;;;;7.80;7.10;;;7.80;77.20;;;;;;5112136;28;20676;-39
2021/04/26 05:48:46;;;;;;;8.85;7.95;;;7.90;77.10;;;;;;5112609;28;20306;-39
2021/04/26 05:51:13;;;;;;;7.85;6.53;;;7.90;77.00;;;;;;5112423;28;20300;-39
2021/04/26 05:53:40;;;;;;;7.60;6.80;;;7.90;76.90;;;;;;5112237;28;20276;-39
2021/04/26 05:56:06;;;;;;;11.35;7.00;;;8.00;76.70;;;;;;5112207;28;20285;-39
2021/04/26 05:58:33;;;;;;;17.90;8.93;;;8.00;76.70;;;;;;5111975;28;20212;-39
2021/04/26 06:01:01;;;;;;;12.10;6.95;;;7.90;76.70;;;;;;5112205;28;20309;-40
2021/04/26 06:03:29;;;;;;;9.20;7.60;;;7.90;77.00;;;;;;5112577;28;20224;-40
2021/04/26 06:05:57;;;;;;;9.35;6.50;;;7.90;77.00;;;;;;5111914;28;20735;-40
2021/04/26 06:08:24;;;;;;;9.00;6.82;;;7.90;76.70;;;;;;5111922;28;20206;-40
2021/04/26 06:10:51;;;;;;;8.55;7.15;;;8.00;76.70;;;;;;5111961;28;20208;-40
2021/04/26 06:13:18;;;;;;;7.40;6.65;;;8.10;76.40;;;;;;5111832;28;20568;-40
2021/04/26 06:15:45;;;;;;;7.65;6.93;;;8.20;76.10;;;;;;5112160;28;20206;-40
2021/04/26 06:18:13;;;;;;;10.30;7.65;;;8.30;75.80;;;;;;5112209;28;20210;-40
2021/04/26 06:20:43;;;;;;;10.98;7.82;;;8.40;75.50;;;;;;5112097;28;20297;-40
2021/04/26 06:23:10;;;;;;;10.95;7.20;;;8.50;75.50;;;;;;5111907;28;20720;-39
2021/04/26 06:25:40;;;;;;;13.75;7.82;;;8.60;75.30;;;;;;5111894;28;20333;-37
2021/04/26 06:28:07;;;;;;;9.75;7.75;;;8.80;75.00;;;;;;5111916;28;20259;-39
2021/04/26 06:30:35;;;;;;;8.57;7.47;;;8.90;74.60;;;;;;5111356;28;20654;-39
2021/04/26 06:33:02;;;;;;;7.72;6.90;;;9.00;74.20;;;;;;5112176;28;20233;-39
2021/04/26 06:35:30;;;;;;;11.27;9.10;;;9.00;74.00;;;;;;5111829;28;20646;-39
2021/04/26 06:37:58;;;;;;;12.27;8.50;;;9.10;73.80;;;;;;5111706;28;20229;-39
2021/04/26 06:40:25;;;;;;;8.93;7.22;;;9.10;73.70;;;;;;5111817;28;20670;-39
2021/04/26 06:42:52;;;;;;;9.02;7.10;;;9.10;73.60;;;;;;5113023;28;20301;-39
2021/04/26 06:45:21;;;;;;;8.25;7.25;;;9.20;73.40;;;;;;5115341;28;20712;-39
2021/04/26 06:47:49;;;;;;;9.13;7.32;;;9.30;73.20;;;;;;5115489;28;20214;-39
2021/04/26 06:50:17;;;;;;;9.90;7.43;;;9.40;73.20;;;;;;5115369;28;20202;-39
2021/04/26 06:52:44;;;;;;;8.77;7.45;;;9.40;72.80;;;;;;5114852;28;20244;-39
2021/04/26 06:55:13;;;;;;;9.35;7.22;;;9.50;72.80;;;;;;5115411;28;20331;-39
2021/04/26 06:57:40;;;;;;;8.70;7.00;;;9.60;72.80;;;;;;5115277;27;20209;-39
2021/04/26 07:00:09;;;;;;;8.90;7.50;;;9.60;72.60;;;;;;5115138;27;20292;-39
2021/04/26 07:02:37;;;;;;;8.32;7.43;;;9.70;72.60;;;;;;5115248;28;20292;-39
2021/04/26 07:05:05;;;;;;;8.25;6.75;;;9.80;72.30;;;;;;5114768;28;20320;-38
2021/04/26 07:07:32;;;;;;;10.70;8.05;;;10.00;71.90;;;;;;5114684;28;20297;-38
2021/04/26 07:09:59;;;;;;;12.32;9.25;;;10.10;71.60;;;;;;5114784;28;20210;-37
2021/04/26 07:12:27;;;;;;;11.23;7.65;;;10.20;71.50;;;;;;5114492;28;20238;-38
2021/04/26 07:14:54;;;;;;;10.15;7.10;;;10.20;71.30;;;;;;5112717;28;20206;-43
2021/04/26 07:17:23;;;;;;;12.30;7.45;;;10.30;71.10;;;;;;5095269;28;20317;-40
2021/04/26 07:19:50;;;;;;;8.45;7.60;;;10.40;70.90;;;;;;5094167;28;20249;-40
2021/04/26 07:22:18;;;;;;;10.80;7.13;;;10.40;70.80;;;;;;5094197;28;20297;-41
2021/04/26 07:24:45;;;;;;;12.68;7.15;;;10.50;70.50;;;;;;5094167;28;20257;-40
2021/04/26 07:27:12;;;;;;;8.73;7.82;;;10.60;71.00;;;;;;5093971;28;20317;-41
2021/04/26 07:29:40;;;;;;;12.55;7.28;;;10.70;70.20;;;;;;5093980;28;20298;-41
2021/04/26 07:32:07;;;;;;;11.23;6.65;;;10.80;70.00;;;;;;5093732;28;20568;-42
2021/04/26 07:34:34;;;;;;;9.65;7.40;;;10.80;69.90;;;;;;5093277;28;20207;-41
2021/04/26 07:37:01;;;;;;;8.80;7.13;;;11.00;69.80;;;;;;5093803;28;20228;-41
2021/04/26 07:39:31;;;;;;;9.02;6.88;;;11.00;69.20;;;;;;5093682;28;20642;-41
2021/04/26 07:41:58;;;;;;;7.88;6.32;;;11.10;68.70;;;;;;5093674;28;20618;-41
2021/04/26 07:44:26;;;;;;;7.95;7.18;;;11.10;68.20;;;;;;5093610;28;20289;-41
2021/04/26 07:46:54;;;;;;;10.07;6.55;;;11.20;68.00;;;;;;5093341;28;20313;-41
2021/04/26 07:49:22;;;;;;;7.60;6.72;;;11.30;67.40;;;;;;5093363;28;20337;-41
2021/04/26 07:51:49;;;;;;;7.50;6.70;;;11.30;67.30;;;;;;5093771;28;20308;-41
2021/04/26 07:54:16;;;;;;;9.73;6.65;;;11.30;68.30;;;;;;5093010;28;20246;-41
2021/04/26 07:56:43;;;;;;;7.20;6.50;;;11.40;67.60;;;;;;5093323;28;20207;-41
2021/04/26 07:59:10;;;;;;;9.02;6.78;;;11.40;67.20;;;;;;5093524;28;20211;-41
2021/04/26 08:01:37;;;;;;;7.80;6.88;;;11.50;67.10;;;;;;5093295;28;20206;-41
2021/04/26 08:04:05;;;;;;;7.53;6.70;;;11.60;66.70;;;;;;5093247;28;20203;-41
2021/04/26 08:06:32;;;;;;;7.72;6.00;;;11.70;66.40;;;;;;5092937;28;20421;-41
2021/04/26 08:08:59;;;;;;;10.20;6.95;;;11.80;67.10;;;;;;5093327;28;20238;-41
2021/04/26 08:11:26;;;;;;;7.70;6.95;;;11.80;66.20;;;;;;5093065;28;20229;-41
2021/04/26 08:13:53;;;;;;;8.13;7.32;;;11.90;66.00;;;;;;5093099;28;20656;-43
2021/04/26 08:16:21;;;;;;;10.13;7.72;;;12.00;66.00;;;;;;5093009;28;20207;-43
2021/04/26 08:18:52;;;;;;;8.60;7.78;;;12.10;65.80;;;;;;5092806;28;20203;-41
2021/04/26 08:21:20;;;;;;;10.57;6.65;;;12.20;65.40;;;;;;5093072;28;20293;-42
2021/04/26 08:23:47;;;;;;;10.38;7.10;;;12.30;65.10;;;;;;5092913;28;20310;-43
2021/04/26 08:26:14;;;;;;;14.32;7.25;;;12.40;64.80;;;;;;5092648;28;20284;-42
2021/04/26 08:28:41;;;;;;;9.45;6.93;;;12.50;64.60;;;;;;5092738;28;20305;-43
2021/04/26 08:31:08;;;;;;;8.88;7.22;;;12.50;64.40;;;;;;5092906;28;20254;-43
2021/04/26 08:33:37;;;;;;;7.85;6.40;;;12.60;64.20;;;;;;5092696;28;20211;-43
2021/04/26 08:36:05;;;;;;;7.50;6.80;;;12.70;63.90;;;;;;5092766;28;20296;-43
2021/04/26 08:38:32;;;;;;;13.30;11.15;;;12.80;63.50;;;;;;5092632;28;20238;-43
2021/04/26 08:40:59;;;;;;;13.15;10.05;;;12.90;63.20;;;;;;5092421;28;20215;-42
2021/04/26 08:43:26;;;;;;;12.25;8.90;;;13.00;63.00;;;;;;5092859;28;20223;-42
2021/04/26 08:45:55;;;;;;;8.93;8.00;;;13.10;62.90;;;;;;5092563;28;20233;-42
2021/04/26 08:48:25;;;;;;;9.80;6.63;;;13.20;62.60;;;;;;5092703;28;20293;-43
2021/04/26 08:50:52;;;;;;;11.98;6.88;;;13.20;62.80;;;;;;5092858;28;20300;-47
2021/04/26 08:53:19;;;;;;;16.88;10.85;;;13.20;62.80;;;;;;5092218;28;20218;-43
2021/04/26 08:55:47;;;;;;;9.35;8.25;;;13.30;62.10;;;;;;5092289;28;20232;-45
2021/04/26 08:58:14;;;;;;;7.68;6.40;;;13.50;61.60;;;;;;5092168;28;20242;-43
2021/04/26 09:00:41;;;;;;;6.20;5.60;;;13.70;61.30;;;;;;5091745;28;20293;-43
2021/04/26 09:03:08;;;;;;;7.70;6.82;;;13.80;61.10;;;;;;5091629;28;20606;-42
2021/04/26 09:05:37;;;;;;;8.88;6.07;;;13.90;60.90;;;;;;5091457;28;20721;-44
2021/04/26 09:08:08;;;;;;;11.77;6.18;;;13.90;60.50;;;;;;5091892;28;20202;-42
2021/04/26 09:10:44;;;;;;;6.97;6.32;;;13.90;60.40;;;;;;5092259;28;20211;-42
2021/04/26 09:13:38;;;;;;;14.48;12.95;;;13.90;60.40;;;;;;5091979;28;20210;-42
2021/04/26 09:16:07;;;;;;;24.92;22.67;;;14.00;60.10;;;;;;5073602;28;20203;-42
2021/04/26 09:18:45;;;;;;;10.57;9.60;;;14.00;60.00;;;;;;5091767;28;20207;-41
2021/04/26 09:21:15;;;;;;;7.35;6.65;;;14.00;59.90;;;;;;5091950;28;20214;-43
2021/04/26 09:23:42;;;;;;;9.60;7.03;;;14.00;59.30;;;;;;5091932;28;20585;-42
2021/04/26 09:26:27;;;;;;;8.07;7.18;;;14.00;58.30;;;;;;5091822;28;20272;-43
2021/04/26 09:29:16;;;;;;;7.43;6.72;;;14.00;58.30;;;;;;5091752;28;20297;-42
2021/04/26 09:31:58;;;;;;;10.13;6.45;;;14.00;58.10;;;;;;5091828;28;20606;-43
2021/04/26 09:34:30;;;;;;;9.98;6.68;;;14.00;58.20;;;;;;5091893;28;20210;-43
2021/04/26 09:37:15;;;;;;;9.25;6.43;;;14.20;58.10;;;;;;5091803;28;20237;-45
2021/04/26 09:40:05;;;;;;;9.13;7.78;;;14.30;57.70;;;;;;5091961;28;20285;-43
2021/04/26 09:42:41;;;;;;;7.22;6.53;;;14.40;57.90;;;;;;5091667;28;20273;-43
2021/04/26 09:45:21;;;;;;;8.48;7.05;;;14.40;57.20;;;;;;5091707;28;20308;-42
2021/04/26 09:47:48;;;;;;;6.90;6.25;;;14.40;56.80;;;;;;5091478;28;20284;-42
2021/04/26 09:50:16;;;;;;;7.35;6.10;;;14.30;56.90;;;;;;5091672;28;20271;-43
2021/04/26 09:52:43;;;;;;;9.30;5.65;;;14.40;56.60;;;;;;5091759;28;20203;-43
2021/04/26 09:55:29;;;;;;;8.25;5.93;;;14.30;56.30;;;;;;5091875;28;20207;-44
2021/04/26 09:57:57;;;;;;;8.10;6.38;;;14.40;55.50;;;;;;5090886;28;20207;-43
2021/04/26 10:00:25;;;;;;;8.85;5.80;;;14.50;55.60;;;;;;5091424;28;20211;-45
2021/04/26 10:02:53;;;;;;;6.00;5.47;;;14.50;55.00;;;;;;5091524;28;20234;-41
2021/04/26 10:05:21;;;;;;;6.88;5.90;;;14.60;55.00;;;;;;5091112;28;20730;-41
2021/04/26 10:07:51;;;;;;;9.48;6.28;;;14.60;55.00;;;;;;5091547;28;20226;-42
2021/04/26 10:10:19;;;;;;;7.88;6.40;;;14.60;55.00;;;;;;5091524;28;20206;-43
2021/04/26 10:12:47;;;;;;;7.63;6.15;;;14.60;55.00;;;;;;5091193;28;20207;-42
2021/04/26 10:15:16;;;;;;;8.15;7.35;;;14.50;55.00;;;;;;5091559;28;20534;-42
2021/04/26 10:17:47;;;;;;;7.57;6.07;;;14.40;55.10;;;;;;5093974;28;20202;-42
2021/04/26 10:20:16;;;;;;;7.03;6.32;;;14.40;55.40;;;;;;5095269;28;20560;-42
2021/04/26 10:22:45;;;;;;;8.38;6.70;;;14.40;55.90;;;;;;5095225;28;20293;-43
2021/04/26 10:25:16;;;;;;;7.50;5.57;;;14.60;55.00;;;;;;5095400;28;20222;-43
2021/04/26 10:27:44;;;;;;;9.65;6.25;;;14.70;54.70;;;;;;5095177;28;20226;-42
2021/04/26 10:30:16;;;;;;;7.68;5.88;;;14.80;54.80;;;;;;5095073;28;20591;-43
2021/04/26 10:32:58;;;;;;;8.57;5.68;;;14.90;54.50;;;;;;5094926;28;20657;-43
2021/04/26 10:35:42;;;;;;;8.77;6.05;;;14.90;53.80;;;;;;5094977;28;20210;-42
2021/04/26 10:38:50;;;;;;;8.07;6.05;;;15.00;53.70;;;;;;5095064;28;20240;-42
2021/04/26 10:41:52;;;;;;;8.68;6.15;;;15.10;53.50;;;;;;5093081;28;20210;-42
2021/04/26 10:44:52;;;;;;;10.05;6.40;;;15.10;53.40;;;;;;5094862;28;20569;-43
2021/04/26 10:47:23;;;;;;;12.10;6.65;;;15.10;53.50;;;;;;5094489;28;20238;-43
2021/04/26 10:50:15;;;;;;;10.32;6.38;;;15.20;53.30;;;;;;5094485;28;20284;-42
2021/04/26 10:52:47;;;;;;;10.38;5.80;;;15.30;53.00;;;;;;5094339;28;20213;-46
2021/04/26 10:55:51;;;;;;;7.43;6.10;;;15.40;52.20;;;;;;5094646;28;20213;-44
2021/04/26 10:58:36;;;;;;;7.00;5.38;;;15.50;51.40;;;;;;5091314;28;20210;-44
2021/04/26 11:01:04;;;;;;;7.80;5.50;;;15.50;50.90;;;;;;5094565;28;20218;-44
2021/04/26 11:03:38;;;;;;;9.75;5.55;;;15.50;50.90;;;;;;5094476;28;20276;-45
2021/04/26 11:06:27;;;;;;;7.57;5.60;;;15.60;50.40;;;;;;5093839;28;20234;-42
2021/04/26 11:09:07;;;;;;;8.00;5.55;;;15.60;50.30;;;;;;5094089;28;20207;-43
2021/04/26 11:11:46;;;;;;;7.20;5.13;;;15.50;50.50;;;;;;5094262;28;20301;-43
2021/04/26 11:14:25;;;;;;;6.15;5.65;;;15.60;50.20;;;;;;5094396;28;20645;-44
2021/04/26 11:16:55;;;;;;;6.80;4.90;;;15.60;49.70;;;;;;5094133;28;20202;-42
2021/04/26 11:19:23;;;;;;;7.15;5.28;;;15.60;49.50;;;;;;5093938;28;20242;-43
2021/04/26 11:22:00;;;;;;;6.45;5.40;;;15.60;49.40;;;;;;5093863;28;20622;-44
2021/04/26 11:25:02;;;;;;;8.68;4.43;;;15.70;49.00;;;;;;5094047;28;20313;-43
2021/04/26 11:27:30;;;;;;;7.63;5.90;;;15.70;48.60;;;;;;5093827;28;20313;-46
2021/04/26 11:30:17;;;;;;;5.75;5.25;;;15.70;48.50;;;;;;5092932;28;20591;-44
2021/04/26 11:33:04;;;;;;;13.40;8.20;;;15.80;48.00;;;;;;5093725;28;20760;-44
2021/04/26 11:35:32;;;;;;;5.75;4.97;;;15.90;47.80;;;;;;5093948;28;20606;-43
2021/04/26 11:38:01;;;;;;;11.20;10.13;;;15.90;47.40;;;;;;5093639;28;20298;-43
2021/04/26 11:40:31;;;;;;;5.68;5.10;;;16.00;46.50;;;;;;5093688;28;20304;-44
2021/04/26 11:43:06;;;;;;;7.30;4.68;;;16.00;46.40;;;;;;5093959;28;20236;-44
2021/04/26 11:45:35;;;;;;;7.28;4.65;;;15.90;46.00;;;;;;5092903;28;20202;-46
2021/04/26 11:48:03;;;;;;;6.03;5.50;;;16.00;46.30;;;;;;5093221;28;20226;-44
2021/04/26 11:50:30;;;;;;;5.88;5.35;;;16.00;46.60;;;;;;5093340;28;20306;-44
2021/04/26 11:52:57;;;;;;;6.13;4.88;;;15.90;47.00;;;;;;5093570;28;20320;-46
2021/04/26 11:55:27;;;;;;;5.72;5.18;;;16.00;47.00;;;;;;5093407;28;20285;-47
2021/04/26 11:57:57;;;;;;;8.98;4.85;;;16.10;46.90;;;;;;5093267;28;20289;-44
2021/04/26 12:00:26;;;;;;;5.35;4.78;;;16.20;46.80;;;;;;5093190;28;20206;-46
2021/04/26 12:03:02;;;;;;;7.78;5.68;;;16.30;46.50;;;;;;5093205;28;20367;-42
2021/04/26 12:05:30;;;;;;;6.60;4.65;;;16.20;46.60;;;;;;5093104;28;20410;-44
2021/04/26 12:07:57;;;;;;;8.52;5.22;;;16.20;46.30;;;;;;5093317;28;20265;-44
2021/04/26 12:10:26;;;;;;;6.90;5.18;;;16.20;46.10;;;;;;5093196;28;20216;-43
2021/04/26 12:12:56;;;;;;;6.13;5.30;;;16.20;46.10;;;;;;5093098;28;20211;-43
2021/04/26 12:15:24;;;;;;;5.97;4.85;;;16.20;46.10;;;;;;5093209;28;20222;-43
2021/04/26 12:17:53;;;;;;;6.25;5.63;;;16.20;45.90;;;;;;5092664;28;20230;-48
2021/04/26 12:20:23;;;;;;;8.77;4.95;;;16.30;45.80;;;;;;5092594;28;20256;-44
2021/04/26 12:22:58;;;;;;;5.57;4.97;;;16.40;45.50;;;;;;5092925;28;20625;-45
2021/04/26 12:25:29;;;;;;;4.70;4.30;;;16.40;44.50;;;;;;5092769;28;20213;-41
2021/04/26 12:27:59;;;;;;;6.85;4.55;;;16.40;44.30;;;;;;5092407;28;20227;-42
2021/04/26 12:30:27;;;;;;;16.35;5.10;;;16.40;44.40;;;;;;5092709;28;20209;-43
2021/04/26 12:32:57;;;;;;;4.90;4.50;;;16.50;43.80;;;;;;5092464;28;20232;-42
2021/04/26 12:35:28;;;;;;;4.15;3.75;;;16.50;43.40;;;;;;5092465;28;20321;-42
2021/04/26 12:37:59;;;;;;;8.30;4.15;;;16.60;43.20;;;;;;5092538;28;20231;-42
2021/04/26 12:40:31;;;;;;;5.75;4.68;;;16.60;43.00;;;;;;5108614;28;20289;-43
2021/04/26 12:43:04;;;;;;;9.65;4.50;;;16.70;42.90;;;;;;5112754;28;20206;-43
2021/04/26 12:45:36;;;;;;;8.70;4.95;;;16.60;42.50;;;;;;5112625;28;20220;-43
2021/04/26 12:48:05;;;;;;;7.68;4.20;;;16.50;42.70;;;;;;5112390;28;20302;-42
2021/04/26 12:50:35;;;;;;;7.80;4.57;;;16.40;42.60;;;;;;5111695;28;20206;-43
2021/04/26 12:53:14;;;;;;;5.57;4.20;;;16.50;42.50;;;;;;5112242;28;20202;-43
2021/04/26 12:55:45;;;;;;;7.90;4.85;;;16.60;42.40;;;;;;5112533;28;20205;-43
2021/04/26 12:58:16;;;;;;;7.28;4.93;;;16.70;42.20;;;;;;5112431;28;20206;-43
2021/04/26 13:00:47;;;;;;;6.13;4.95;;;16.70;42.10;;;;;;5112437;28;20206;-43
2021/04/26 13:03:32;;;;;;;10.65;4.32;;;16.70;42.20;;;;;;5112276;28;20237;-44
2021/04/26 13:06:02;;;;;;;7.47;5.13;;;16.70;42.60;;;;;;5110998;28;20238;-43